Delta Virtual Airport Information Service

San Diego International Airport

ICAO: KSAN Country: United States
Latitude: 32.7336 Longitude: -117.189
Latest Arrival : SWA5549 (C) (KPHX-KSAN) Latest Departure : HAL15 (KSAN-PHNL)


WX CaptureLIVE
Data provided by noaa.gov | Fetched at 09:36:35

METAR : KSAN 041351Z 20006KT 5SM BR OVC005 18/17 A2997 RMK AO2 DZE29 SLP149 CIG 004V007 P0000 T01780167

TAF : KSAN 041400Z 0414/0518 20006KT 5SM BR OVC005 FM041600 18006KT P6SM BKN010 FM041900 24008KT P6SM SCT015 FM050400 24007KT P6SM OVC010 FM050600 22010KT P6SM OVC008


Runway Data for KSAN
Data provided by openaviationdata.com

Runway ID Mag Var Hdg Length Elevation Surface ILS Freq ILS Id ILS Slope
9 13 92° 9394 ft 15 ft Concrete 110.9 ISAN 3
27 13 272° 9394 ft 15 ft Concrete 110.9 IUBR 0

San Diego International Airport, United States
Use only for reference purposes



Not for navigational purposes.